Time;durP1;ratioP1;P1;durP2;ratioP2;P2;SDS_P1;SDS_P2;PMS_P1;PMS_P2;Temp;Humidity;BMP_temperature;BMP_pressure;BME280_temperature;BME280_humidity;BME280_pressure;Samples;Min_cycle;Max_cycle;Signal;HPM_P1;HPM_P2
2023/03/25 00:01:28;;;;;;;;;;;;;;;11.55;nan;97876.66;5030903;28;19967;-61
2023/03/25 00:03:54;;;;;;;;;;;;;;;11.43;nan;97886.47;5030384;28;19947;-60
2023/03/25 00:06:20;;;;;;;;;;;;;;;11.40;nan;97890.84;5028025;28;20510;-59
2023/03/25 00:08:45;;;;;;;;;;;;;;;11.34;nan;97896.19;5026126;28;20011;-60
2023/03/25 00:11:11;;;;;;;;;;;;;;;11.25;nan;97902.47;5027556;28;20391;-59
2023/03/25 00:13:36;;;;;;;;;;;;;;;11.24;nan;97890.53;5034910;28;20206;-59
2023/03/25 00:16:03;;;;;;;;;;;;;;;11.21;nan;97884.66;5027979;28;19925;-60
2023/03/25 00:18:32;;;;;;;;;;;;;;;11.14;nan;97871.22;5031780;28;19925;-60
2023/03/25 00:20:58;;;;;;;;;;;;;;;11.10;nan;97874.78;5029941;28;19925;-60
2023/03/25 00:23:24;;;;;;;;;;;;;;;11.04;nan;97858.72;5028817;28;20338;-59
2023/03/25 00:25:51;;;;;;;;;;;;;;;11.02;nan;97853.66;5029229;28;19935;-59
2023/03/25 00:28:17;;;;;;;;;;;;;;;10.98;nan;97852.09;5027848;28;20019;-60
2023/03/25 00:30:43;;;;;;;;;;;;;;;10.94;nan;97864.19;5031009;28;20004;-60
2023/03/25 00:33:17;;;;;;;;;;;;;;;10.96;nan;97887.19;5029244;28;19974;-60
2023/03/25 00:35:43;;;;;;;;;;;;;;;10.93;nan;97880.44;5028930;28;19925;-60
2023/03/25 00:38:11;;;;;;;;;;;;;;;10.90;nan;97885.69;5028264;28;19924;-58
2023/03/25 00:40:37;;;;;;;;;;;;;;;10.88;nan;97887.44;5027942;28;19921;-60
2023/03/25 00:43:03;;;;;;;;;;;;;;;10.87;nan;97879.78;5029817;28;19924;-60
2023/03/25 00:45:29;;;;;;;;;;;;;;;10.88;nan;97876.34;5026608;28;19952;-60
2023/03/25 00:47:55;;;;;;;;;;;;;;;10.91;nan;97864.25;5028600;28;19921;-59
2023/03/25 00:50:21;;;;;;;;;;;;;;;10.92;nan;97857.41;5031161;28;19971;-60
2023/03/25 00:52:47;;;;;;;;;;;;;;;10.93;nan;97856.53;5035283;28;19928;-60
2023/03/25 00:55:13;;;;;;;;;;;;;;;10.92;nan;97855.69;5026416;28;19943;-59
2023/03/25 00:57:39;;;;;;;;;;;;;;;11.00;nan;97865.69;5030021;28;20283;-60
2023/03/25 01:00:07;;;;;;;;;;;;;;;11.08;nan;97875.69;5029699;28;19917;-60
2023/03/25 01:02:34;;;;;;;;;;;;;;;11.03;nan;97872.47;5039026;28;19920;-60
2023/03/25 01:05:00;;;;;;;;;;;;;;;10.99;nan;97867.41;5027400;28;19935;-61
2023/03/25 01:07:28;;;;;;;;;;;;;;;10.96;nan;97866.69;5030836;28;20025;-60
2023/03/25 01:09:57;;;;;;;;;;;;;;;11.09;nan;97864.53;5027275;28;19920;-60
2023/03/25 01:12:23;;;;;;;;;;;;;;;11.10;nan;97868.78;5031643;28;19920;-59
2023/03/25 01:14:49;;;;;;;;;;;;;;;11.06;nan;97872.34;5043443;28;19920;-60
2023/03/25 01:17:15;;;;;;;;;;;;;;;11.02;nan;97863.94;5026608;28;19921;-60
2023/03/25 01:19:40;;;;;;;;;;;;;;;10.99;nan;97862.28;5028636;28;20031;-60
2023/03/25 01:22:06;;;;;;;;;;;;;;;11.11;nan;97873.88;5043578;28;20459;-59
2023/03/25 01:24:31;;;;;;;;;;;;;;;11.24;nan;97876.88;5027213;28;20398;-62
2023/03/25 01:26:57;;;;;;;;;;;;;;;11.61;nan;97872.16;5026355;28;19920;-60
2023/03/25 01:29:23;;;;;;;;;;;;;;;11.76;nan;97881.06;5028511;28;19921;-59
2023/03/25 01:31:48;;;;;;;;;;;;;;;11.99;nan;97875.09;5026086;28;20004;-59
2023/03/25 01:34:14;;;;;;;;;;;;;;;12.14;nan;97871.94;5029420;28;20012;-59
2023/03/25 01:36:40;;;;;;;;;;;;;;;12.15;nan;97879.59;5029939;28;20374;-59
2023/03/25 01:39:07;;;;;;;;;;;;;;;12.17;nan;97892.41;5028686;28;20453;-60
2023/03/25 01:41:33;;;;;;;;;;;;;;;12.21;nan;97906.81;5029071;28;19947;-61
2023/03/25 01:44:28;;;;;;;;;;;;;;;12.27;nan;97906.56;5026830;28;19924;-60
2023/03/25 01:46:55;;;;;;;;;;;;;;;12.26;nan;97905.72;5024387;28;20019;-60
2023/03/25 01:49:25;;;;;;;;;;;;;;;12.28;nan;97901.38;5028868;28;19940;-65
2023/03/25 01:51:54;;;;;;;;;;;;;;;12.20;nan;97895.69;5030356;28;19929;-58
2023/03/25 01:54:19;;;;;;;;;;;;;;;12.18;nan;97900.03;5036853;28;19928;-59
2023/03/25 01:56:46;;;;;;;;;;;;;;;12.12;nan;97907.16;5032026;28;20388;-59
2023/03/25 01:59:13;;;;;;;;;;;;;;;12.22;nan;97916.22;5028346;28;19925;-60
2023/03/25 02:01:39;;;;;;;;;;;;;;;12.30;nan;97902.19;5027366;28;20403;-59
2023/03/25 02:04:11;;;;;;;;;;;;;;;12.23;nan;97895.56;5028775;28;20279;-60
2023/03/25 02:06:44;;;;;;;;;;;;;;;12.24;nan;97899.81;5031944;28;20010;-59
2023/03/25 02:09:11;;;;;;;;;;;;;;;12.19;nan;97917.16;5026165;28;20384;-61
2023/03/25 02:11:40;;;;;;;;;;;;;;;12.21;nan;97914.53;5044123;28;20011;-58
2023/03/25 02:14:07;;;;;;;;;;;;;;;12.22;nan;97908.50;5032976;28;19921;-60
2023/03/25 02:16:39;;;;;;;;;;;;;;;12.18;nan;97892.34;5030250;28;19933;-60
2023/03/25 02:19:17;;;;;;;;;;;;;;;12.12;nan;97895.16;5031724;28;19974;-61
2023/03/25 02:22:01;;;;;;;;;;;;;;;12.11;nan;97900.34;5028981;28;19932;-60
2023/03/25 02:24:42;;;;;;;;;;;;;;;12.11;nan;97897.75;5031154;28;20051;-61
2023/03/25 02:27:14;;;;;;;;;;;;;;;12.06;nan;97915.06;5027109;28;19932;-59
2023/03/25 02:29:59;;;;;;;;;;;;;;;11.99;nan;97908.50;5030263;28;19924;-61
2023/03/25 02:32:42;;;;;;;;;;;;;;;11.97;nan;97905.13;5030719;28;20376;-60
2023/03/25 02:35:16;;;;;;;;;;;;;;;11.98;nan;97904.25;5030195;28;19928;-60
2023/03/25 02:37:45;;;;;;;;;;;;;;;11.85;nan;97909.81;5032886;28;19921;-58
2023/03/25 02:40:21;;;;;;;;;;;;;;;11.93;nan;97906.13;5040098;28;20442;-59
2023/03/25 02:42:50;;;;;;;;;;;;;;;11.86;nan;97908.94;5032415;28;20265;-58
2023/03/25 02:45:18;;;;;;;;;;;;;;;11.80;nan;97908.31;5048822;28;19921;-59
2023/03/25 02:47:46;;;;;;;;;;;;;;;11.85;nan;97916.69;5032834;28;20047;-60
2023/03/25 02:50:25;;;;;;;;;;;;;;;11.80;nan;97904.00;5032544;28;20015;-60
2023/03/25 02:52:54;;;;;;;;;;;;;;;11.79;nan;97922.06;5031470;28;19928;-59
2023/03/25 02:55:21;;;;;;;;;;;;;;;11.75;nan;97916.16;5034539;28;19931;-61
2023/03/25 02:57:51;;;;;;;;;;;;;;;11.71;nan;97919.69;5046045;28;19971;-59
2023/03/25 03:00:19;;;;;;;;;;;;;;;11.68;nan;97919.81;5031616;28;20350;-60
2023/03/25 03:02:58;;;;;;;;;;;;;;;11.66;nan;97918.22;5031897;28;19917;-60
2023/03/25 03:05:26;;;;;;;;;;;;;;;11.69;nan;97924.06;5034926;28;19921;-60
2023/03/25 03:07:56;;;;;;;;;;;;;;;11.61;nan;97926.06;5032211;28;19925;-60
2023/03/25 03:10:24;;;;;;;;;;;;;;;11.53;nan;97934.91;5028123;28;20402;-60
2023/03/25 03:13:09;;;;;;;;;;;;;;;11.53;nan;97940.88;5028905;28;19932;-60
2023/03/25 03:15:41;;;;;;;;;;;;;;;11.45;nan;97936.03;5030790;28;19980;-60
2023/03/25 03:18:33;;;;;;;;;;;;;;;11.51;nan;97934.97;5028589;28;19924;-61
2023/03/25 03:21:10;;;;;;;;;;;;;;;11.41;nan;97931.03;5026939;28;19924;-60
2023/03/25 03:23:48;;;;;;;;;;;;;;;11.41;nan;97934.41;5030902;28;19943;-60
2023/03/25 03:26:13;;;;;;;;;;;;;;;11.38;nan;97942.22;5033376;28;19928;-60
2023/03/25 03:28:46;;;;;;;;;;;;;;;11.39;nan;97954.19;5030763;28;20487;-59
2023/03/25 03:31:23;;;;;;;;;;;;;;;11.45;nan;97946.28;5032914;28;19943;-59
2023/03/25 03:33:49;;;;;;;;;;;;;;;11.39;nan;97943.06;5032441;28;20031;-59
2023/03/25 03:36:24;;;;;;;;;;;;;;;11.27;nan;97956.31;5030798;28;19921;-59
2023/03/25 03:38:53;;;;;;;;;;;;;;;11.28;nan;97952.88;5030169;28;20380;-59
2023/03/25 03:41:21;;;;;;;;;;;;;;;11.35;nan;97942.34;5032206;28;19940;-58
2023/03/25 03:43:53;;;;;;;;;;;;;;;11.36;nan;97941.47;5032385;28;19916;-59
2023/03/25 03:46:26;;;;;;;;;;;;;;;11.29;nan;97927.13;5030868;28;19920;-58
2023/03/25 03:48:54;;;;;;;;;;;;;;;11.29;nan;97926.28;5030861;28;19946;-60
2023/03/25 03:51:28;;;;;;;;;;;;;;;11.33;nan;97922.75;5032480;28;20000;-59
2023/03/25 03:53:57;;;;;;;;;;;;;;;11.31;nan;97922.81;5031345;28;19921;-59
2023/03/25 03:56:37;;;;;;;;;;;;;;;11.25;nan;97928.13;5031182;28;20557;-59
2023/03/25 03:59:07;;;;;;;;;;;;;;;11.23;nan;97918.81;5040052;28;19928;-59
2023/03/25 04:01:45;;;;;;;;;;;;;;;11.17;nan;97922.41;5031504;28;19921;-59
2023/03/25 04:04:14;;;;;;;;;;;;;;;11.13;nan;97928.53;5030816;28;20015;-60
2023/03/25 04:06:42;;;;;;;;;;;;;;;11.13;nan;97927.69;5031283;28;19928;-59
2023/03/25 04:09:17;;;;;;;;;;;;;;;11.12;nan;97928.59;5031797;28;19921;-59
2023/03/25 04:11:49;;;;;;;;;;;;;;;11.19;nan;97940.31;5030803;28;19921;-59
2023/03/25 04:14:15;;;;;;;;;;;;;;;11.23;nan;97944.47;5029278;28;20004;-60
2023/03/25 04:16:44;;;;;;;;;;;;;;;11.24;nan;97943.59;5032024;28;19975;-58
2023/03/25 04:19:12;;;;;;;;;;;;;;;11.20;nan;97942.81;5029969;28;20019;-58
2023/03/25 04:21:38;;;;;;;;;;;;;;;11.26;nan;97946.94;5045792;28;19925;-59
2023/03/25 04:24:06;;;;;;;;;;;;;;;11.21;nan;97947.06;5030531;28;19932;-59
2023/03/25 04:26:36;;;;;;;;;;;;;;;11.27;nan;97944.31;5031608;28;19932;-60
2023/03/25 04:29:02;;;;;;;;;;;;;;;11.24;nan;97936.72;5030586;28;19927;-63
2023/03/25 04:31:31;;;;;;;;;;;;;;;11.22;nan;97929.97;5030175;28;19921;-61
2023/03/25 04:33:57;;;;;;;;;;;;;;;11.26;nan;97936.66;5029375;28;20609;-59
2023/03/25 04:36:23;;;;;;;;;;;;;;;11.21;nan;97943.66;5030822;28;19931;-59
2023/03/25 04:38:51;;;;;;;;;;;;;;;11.19;nan;97955.72;5029224;28;19959;-60
2023/03/25 04:41:17;;;;;;;;;;;;;;;11.14;nan;97952.47;5029513;28;20344;-60
2023/03/25 04:43:44;;;;;;;;;;;;;;;11.12;nan;97957.63;5028078;28;19920;-60
2023/03/25 04:46:14;;;;;;;;;;;;;;;11.09;nan;97959.47;5028102;28;19975;-61
2023/03/25 04:48:40;;;;;;;;;;;;;;;11.08;nan;97958.63;5030797;28;19920;-60
2023/03/25 04:51:09;;;;;;;;;;;;;;;11.06;nan;97970.66;5030272;28;19925;-59
2023/03/25 04:53:34;;;;;;;;;;;;;;;10.96;nan;97959.84;5031288;28;20386;-60
2023/03/25 04:56:00;;;;;;;;;;;;;;;10.95;nan;97963.28;5029931;28;20054;-60
2023/03/25 04:58:26;;;;;;;;;;;;;;;11.04;nan;97954.47;5030092;28;20471;-59
2023/03/25 05:00:51;;;;;;;;;;;;;;;11.10;nan;97961.13;5036587;28;19924;-59
2023/03/25 05:03:22;;;;;;;;;;;;;;;11.13;nan;97961.03;5029829;28;19971;-60
2023/03/25 05:05:49;;;;;;;;;;;;;;;11.27;nan;97969.13;5026396;28;20095;-60
2023/03/25 05:08:15;;;;;;;;;;;;;;;11.38;nan;97964.47;5028496;28;20067;-60
2023/03/25 05:10:42;;;;;;;;;;;;;;;11.37;nan;97970.53;5042810;28;20376;-59
2023/03/25 05:13:07;;;;;;;;;;;;;;;11.50;nan;97976.91;5029020;28;20254;-58
2023/03/25 05:15:38;;;;;;;;;;;;;;;11.48;nan;97976.13;5028689;28;20380;-60
2023/03/25 05:18:11;;;;;;;;;;;;;;;11.56;nan;97991.28;5027425;28;19971;-60
2023/03/25 05:20:38;;;;;;;;;;;;;;;11.52;nan;97984.56;5025302;28;19925;-59
2023/03/25 05:23:05;;;;;;;;;;;;;;;11.49;nan;97979.53;5027675;28;19991;-58
2023/03/25 05:25:33;;;;;;;;;;;;;;;11.50;nan;97979.47;5028461;28;20495;-58
2023/03/25 05:27:59;;;;;;;;;;;;;;;11.49;nan;97984.69;5029695;28;20023;-58
2023/03/25 05:30:31;;;;;;;;;;;;;;;11.44;nan;97977.13;5027443;28;20376;-59
2023/03/25 05:32:58;;;;;;;;;;;;;;;11.37;nan;97980.78;5029564;28;20494;-58
2023/03/25 05:35:27;;;;;;;;;;;;;;;11.35;nan;97978.28;5025888;28;19925;-59
2023/03/25 05:37:52;;;;;;;;;;;;;;;11.41;nan;97977.25;5026765;28;20066;-59
2023/03/25 05:40:18;;;;;;;;;;;;;;;11.40;nan;97973.81;5027967;28;20821;-60
2023/03/25 05:42:47;;;;;;;;;;;;;;;11.43;nan;97963.44;5028179;28;20014;-59
2023/03/25 05:45:16;;;;;;;;;;;;;;;11.49;nan;97987.25;5029896;28;19962;-60
2023/03/25 05:47:41;;;;;;;;;;;;;;;11.48;nan;97983.00;5032435;28;20026;-60
2023/03/25 05:50:09;;;;;;;;;;;;;;;11.40;nan;97985.81;5031786;28;19921;-60
2023/03/25 05:52:35;;;;;;;;;;;;;;;11.40;nan;97998.66;5034000;28;19921;-59
2023/03/25 05:55:02;;;;;;;;;;;;;;;11.35;nan;98008.22;5031601;28;21844;-60
2023/03/25 05:57:27;;;;;;;;;;;;;;;11.35;nan;98010.78;5031530;28;20014;-58
2023/03/25 05:59:53;;;;;;;;;;;;;;;11.33;nan;98007.44;5035804;28;19997;-60
2023/03/25 06:02:19;;;;;;;;;;;;;;;11.41;nan;98016.53;5033262;28;19967;-59
2023/03/25 06:04:49;;;;;;;;;;;;;;;11.42;nan;98009.69;5032056;28;19924;-59
2023/03/25 06:07:21;;;;;;;;;;;;;;;11.51;nan;98014.53;5031175;28;20377;-67
2023/03/25 06:09:48;;;;;;;;;;;;;;;11.52;nan;98018.78;5032436;28;20019;-59
2023/03/25 06:12:18;;;;;;;;;;;;;;;11.53;nan;98012.78;5031916;28;20023;-60
2023/03/25 06:14:45;;;;;;;;;;;;;;;11.62;nan;98017.59;5032408;28;19926;-59
2023/03/25 06:17:14;;;;;;;;;;;;;;;11.71;nan;98017.28;5031319;28;19928;-65
2023/03/25 06:19:39;;;;;;;;;;;;;;;11.77;nan;98021.41;5028925;28;19925;-62
2023/03/25 06:22:08;;;;;;;;;;;;;;;11.83;nan;98016.91;5029686;28;20051;-61
2023/03/25 06:24:37;;;;;;;;;;;;;;;11.82;nan;98010.09;5028122;28;19916;-61
2023/03/25 06:27:03;;;;;;;;;;;;;;;11.85;nan;98029.69;5029172;28;19928;-61
2023/03/25 06:29:28;;;;;;;;;;;;;;;11.88;nan;98019.34;5029252;28;20027;-61
2023/03/25 06:31:54;;;;;;;;;;;;;;;11.93;nan;98011.44;5040379;28;20357;-61
2023/03/25 06:34:19;;;;;;;;;;;;;;;11.95;nan;98020.78;5022456;28;20771;-61
2023/03/25 06:36:48;;;;;;;;;;;;;;;11.99;nan;98034.38;5024815;28;19921;-60
2023/03/25 06:39:15;;;;;;;;;;;;;;;12.00;nan;98013.78;5031472;28;19925;-60
2023/03/25 06:41:40;;;;;;;;;;;;;;;12.06;nan;98020.41;5040482;28;19968;-61
2023/03/25 06:44:22;;;;;;;;;;;;;;;11.92;nan;98030.34;5029817;28;20272;-60
2023/03/25 06:47:19;;;;;;;;;;;;;;;12.05;nan;98026.47;5032252;28;19967;-61
2023/03/25 06:49:48;;;;;;;;;;;;;;;12.07;nan;98016.97;5032078;28;20388;-61
2023/03/25 06:52:14;;;;;;;;;;;;;;;12.00;nan;98020.63;5031804;28;19987;-60
2023/03/25 06:54:40;;;;;;;;;;;;;;;11.95;nan;98015.66;5031792;28;20394;-60
2023/03/25 06:57:06;;;;;;;;;;;;;;;12.01;nan;98009.47;5030939;28;19925;-61
2023/03/25 06:59:31;;;;;;;;;;;;;;;12.06;nan;98007.56;5031131;28;20560;-61
2023/03/25 07:01:57;;;;;;;;;;;;;;;12.03;nan;98007.69;5028152;28;19995;-62
2023/03/25 07:04:23;;;;;;;;;;;;;;;12.06;nan;98000.69;5028019;28;19943;-61
2023/03/25 07:06:48;;;;;;;;;;;;;;;12.03;nan;97997.41;5033087;28;19921;-61
2023/03/25 07:09:14;;;;;;;;;;;;;;;12.05;nan;97990.50;5029989;28;19917;-62
2023/03/25 07:11:41;;;;;;;;;;;;;;;12.11;nan;97980.81;5027667;28;19964;-58
2023/03/25 07:14:06;;;;;;;;;;;;;;;12.15;nan;97977.25;5030822;28;20413;-58
2023/03/25 07:16:32;;;;;;;;;;;;;;;12.17;nan;97974.63;5030257;28;19921;-60
2023/03/25 07:18:58;;;;;;;;;;;;;;;12.12;nan;97979.09;5027618;28;20291;-60
2023/03/25 07:21:24;;;;;;;;;;;;;;;12.16;nan;97976.38;5031094;28;20363;-61
2023/03/25 07:23:50;;;;;;;;;;;;;;;12.20;nan;97982.22;5027466;28;20430;-60
2023/03/25 07:26:15;;;;;;;;;;;;;;;12.22;nan;97977.88;5028556;28;19964;-61
2023/03/25 07:28:41;;;;;;;;;;;;;;;12.23;nan;97987.25;5030463;28;19983;-61
2023/03/25 07:31:08;;;;;;;;;;;;;;;12.26;nan;97985.41;5029968;28;19925;-60
2023/03/25 07:33:34;;;;;;;;;;;;;;;12.25;nan;97999.16;5032126;28;19921;-60
2023/03/25 07:35:59;;;;;;;;;;;;;;;12.30;nan;97996.44;5030736;28;19924;-60
2023/03/25 07:38:25;;;;;;;;;;;;;;;12.24;nan;97992.34;5031463;28;20034;-61
2023/03/25 07:40:50;;;;;;;;;;;;;;;12.28;nan;97975.91;5029843;28;19924;-60
2023/03/25 07:43:16;;;;;;;;;;;;;;;12.28;nan;97981.06;5029877;28;20008;-60
2023/03/25 07:45:54;;;;;;;;;;;;;;;12.35;nan;97969.66;5025134;28;20030;-61
2023/03/25 07:48:21;;;;;;;;;;;;;;;12.30;nan;97955.31;5030590;28;19935;-60
2023/03/25 07:50:49;;;;;;;;;;;;;;;12.28;nan;97951.94;5029473;28;19946;-61
2023/03/25 07:53:15;;;;;;;;;;;;;;;12.31;nan;97954.41;5029389;28;19921;-61
2023/03/25 07:55:40;;;;;;;;;;;;;;;12.27;nan;97960.53;5029944;28;20199;-60
2023/03/25 07:58:06;;;;;;;;;;;;;;;12.23;nan;97962.41;5029075;28;19921;-61
2023/03/25 08:00:32;;;;;;;;;;;;;;;12.18;nan;97984.00;5035499;28;19925;-60
2023/03/25 08:02:57;;;;;;;;;;;;;;;12.17;nan;97983.19;5030611;28;19931;-60
2023/03/25 08:05:46;;;;;;;;;;;;;;;12.09;nan;97992.06;5030615;28;20300;-58
2023/03/25 08:08:11;;;;;;;;;;;;;;;12.06;nan;97977.56;5027836;28;19968;-58
2023/03/25 08:10:37;;;;;;;;;;;;;;;12.02;nan;98016.28;5028210;28;20337;-59
2023/03/25 08:13:02;;;;;;;;;;;;;;;12.01;nan;97986.34;5031195;28;20015;-59
2023/03/25 08:15:28;;;;;;;;;;;;;;;12.00;nan;98000.09;5029285;28;19925;-59
2023/03/25 08:17:53;;;;;;;;;;;;;;;11.96;nan;97996.78;5030403;28;19925;-60
2023/03/25 08:20:20;;;;;;;;;;;;;;;12.07;nan;97998.97;5029230;28;20020;-61
2023/03/25 08:22:45;;;;;;;;;;;;;;;12.09;nan;97997.19;5029702;28;19925;-58
2023/03/25 08:25:11;;;;;;;;;;;;;;;12.01;nan;98006.91;5029806;28;19931;-61
2023/03/25 08:27:36;;;;;;;;;;;;;;;11.91;nan;98003.81;5029657;28;20364;-61
2023/03/25 08:30:03;;;;;;;;;;;;;;;11.87;nan;97997.09;5030177;28;19925;-63
2023/03/25 08:32:29;;;;;;;;;;;;;;;11.92;nan;97994.38;5037981;28;20007;-70
2023/03/25 08:34:55;;;;;;;;;;;;;;;11.94;nan;98000.28;5028947;28;19921;-66
2023/03/25 08:37:20;;;;;;;;;;;;;;;11.97;nan;97993.31;5028350;28;19925;-66
2023/03/25 08:39:49;;;;;;;;;;;;;;;11.94;nan;97998.56;5029496;28;20107;-63
2023/03/25 08:42:15;;;;;;;;;;;;;;;12.00;nan;98011.22;5029021;28;20039;-64
2023/03/25 08:44:41;;;;;;;;;;;;;;;11.96;nan;98006.22;5030500;28;19931;-63
2023/03/25 08:47:06;;;;;;;;;;;;;;;12.10;nan;98024.56;5030916;28;20027;-59
2023/03/25 08:49:32;;;;;;;;;;;;;;;12.14;nan;98036.41;5030024;28;20318;-58
2023/03/25 08:51:59;;;;;;;;;;;;;;;12.11;nan;98037.34;5029997;28;19936;-57
2023/03/25 08:54:24;;;;;;;;;;;;;;;12.09;nan;98044.28;5030814;28;20061;-61
2023/03/25 08:56:50;;;;;;;;;;;;;;;12.17;nan;98047.44;5028449;28;20389;-61
2023/03/25 08:59:16;;;;;;;;;;;;;;;12.21;nan;98050.72;5029860;28;19920;-61
2023/03/25 09:01:43;;;;;;;;;;;;;;;12.15;nan;98066.34;5033480;28;19920;-61
2023/03/25 09:04:09;;;;;;;;;;;;;;;12.12;nan;98048.47;5033404;28;19924;-61
2023/03/25 09:06:35;;;;;;;;;;;;;;;12.29;nan;98051.31;5029132;28;19978;-60
2023/03/25 09:09:01;;;;;;;;;;;;;;;12.24;nan;98066.03;5029499;28;20493;-60
2023/03/25 09:11:27;;;;;;;;;;;;;;;12.11;nan;98075.06;5030729;28;20000;-61
2023/03/25 09:13:52;;;;;;;;;;;;;;;12.15;nan;98069.75;5029907;28;19936;-62
2023/03/25 09:16:17;;;;;;;;;;;;;;;12.20;nan;98067.88;5029583;28;19937;-60
2023/03/25 09:18:43;;;;;;;;;;;;;;;12.39;nan;98057.78;5028408;28;20836;-60
2023/03/25 09:21:08;;;;;;;;;;;;;;;12.42;nan;98051.69;5019657;28;20006;-61
2023/03/25 09:23:34;;;;;;;;;;;;;;;12.50;nan;98054.84;5023505;28;20380;-62
2023/03/25 09:26:01;;;;;;;;;;;;;;;12.36;nan;98055.31;5030496;28;20464;-63
2023/03/25 09:28:27;;;;;;;;;;;;;;;12.44;nan;98045.59;5028544;28;19975;-61
2023/03/25 09:30:52;;;;;;;;;;;;;;;12.68;nan;98044.75;5029416;28;19917;-58
2023/03/25 09:33:18;;;;;;;;;;;;;;;12.72;nan;98042.88;5027564;28;19936;-59
2023/03/25 09:35:43;;;;;;;;;;;;;;;12.54;nan;98046.97;5026475;28;19921;-60
2023/03/25 09:38:09;;;;;;;;;;;;;;;12.72;nan;98055.75;5025744;28;19925;-59
2023/03/25 09:40:34;;;;;;;;;;;;;;;12.71;nan;98051.50;5027795;28;19925;-60
2023/03/25 09:43:00;;;;;;;;;;;;;;;12.64;nan;98053.47;5020238;28;19933;-59
2023/03/25 09:45:43;;;;;;;;;;;;;;;12.77;nan;98046.13;5028434;28;19921;-59
2023/03/25 09:48:12;;;;;;;;;;;;;;;12.89;nan;98040.53;5027961;28;20380;-58
2023/03/25 09:50:38;;;;;;;;;;;;;;;12.87;nan;98038.88;5028922;28;20768;-59
2023/03/25 09:53:09;;;;;;;;;;;;;;;13.03;nan;98039.97;5028576;28;19924;-60
2023/03/25 09:55:39;;;;;;;;;;;;;;;13.05;nan;98046.75;5028976;28;19951;-60
2023/03/25 09:58:21;;;;;;;;;;;;;;;12.99;nan;98039.25;5027693;28;19928;-60
2023/03/25 10:00:50;;;;;;;;;;;;;;;13.03;nan;98039.97;5027674;28;20007;-70
2023/03/25 10:03:24;;;;;;;;;;;;;;;13.07;nan;98046.72;5027673;28;19983;-60
2023/03/25 10:06:02;;;;;;;;;;;;;;;13.24;nan;98044.31;5029701;28;19925;-60
2023/03/25 10:08:46;;;;;;;;;;;;;;;13.31;nan;98042.38;5029376;28;20015;-61
2023/03/25 10:11:14;;;;;;;;;;;;;;;13.39;nan;98048.06;5028726;28;20339;-61
2023/03/25 10:13:56;;;;;;;;;;;;;;;13.41;nan;98033.41;5026739;28;19940;-60
2023/03/25 10:16:40;;;;;;;;;;;;;;;13.26;nan;98033.09;5026191;28;19920;-60
2023/03/25 10:19:16;;;;;;;;;;;;;;;13.18;nan;98062.59;5028935;28;20287;-59
2023/03/25 10:21:42;;;;;;;;;;;;;;;13.07;nan;98057.00;5029433;28;20617;-61
2023/03/25 10:24:07;;;;;;;;;;;;;;;12.91;nan;98050.75;5029021;28;19921;-61
2023/03/25 10:26:42;;;;;;;;;;;;;;;13.04;nan;98064.81;5032638;28;19920;-68
2023/03/25 10:29:13;;;;;;;;;;;;;;;13.08;nan;98063.81;5033929;28;19920;-66
2023/03/25 10:31:45;;;;;;;;;;;;;;;13.00;nan;98053.81;5027408;28;19921;-65
2023/03/25 10:34:19;;;;;;;;;;;;;;;12.93;nan;98060.09;5035536;28;19924;-60
2023/03/25 10:36:56;;;;;;;;;;;;;;;12.99;nan;98064.16;5049291;28;19970;-58
2023/03/25 10:39:22;;;;;;;;;;;;;;;12.93;nan;98069.53;5033273;28;20000;-61
2023/03/25 10:41:58;;;;;;;;;;;;;;;12.93;nan;98083.25;5034185;28;19982;-61
2023/03/25 10:44:25;;;;;;;;;;;;;;;13.01;nan;98076.06;5039497;28;19927;-60
2023/03/25 10:46:57;;;;;;;;;;;;;;;13.02;nan;98116.38;5031306;28;20034;-61
2023/03/25 10:49:27;;;;;;;;;;;;;;;12.89;nan;98083.41;5032738;28;19920;-60
2023/03/25 10:51:53;;;;;;;;;;;;;;;13.05;nan;98095.66;5032053;28;20001;-61
2023/03/25 10:54:20;;;;;;;;;;;;;;;13.03;nan;98092.28;5033118;28;20019;-61
2023/03/25 10:56:48;;;;;;;;;;;;;;;13.16;nan;98100.41;5033395;28;19921;-62
2023/03/25 10:59:18;;;;;;;;;;;;;;;13.22;nan;98103.63;5040458;28;19920;-64
2023/03/25 11:01:44;;;;;;;;;;;;;;;13.18;nan;98102.06;5033352;28;19928;-60
2023/03/25 11:04:15;;;;;;;;;;;;;;;13.27;nan;98108.59;5031554;28;20216;-63
2023/03/25 11:06:44;;;;;;;;;;;;;;;13.24;nan;98106.94;5034317;28;20007;-61
2023/03/25 11:09:21;;;;;;;;;;;;;;;13.43;nan;98098.53;5040614;28;19924;-61
2023/03/25 11:11:48;;;;;;;;;;;;;;;13.33;nan;98095.47;5031860;28;19948;-61
2023/03/25 11:14:14;;;;;;;;;;;;;;;13.35;nan;98106.56;5033388;28;20114;-61
2023/03/25 11:16:41;;;;;;;;;;;;;;;13.27;nan;98085.41;5033252;28;19921;-62
2023/03/25 11:19:13;;;;;;;;;;;;;;;13.30;nan;98087.88;5034194;28;19917;-61
2023/03/25 11:21:38;;;;;;;;;;;;;;;13.37;nan;98086.72;5029525;28;19928;-60
2023/03/25 11:24:05;;;;;;;;;;;;;;;13.21;nan;98076.19;5033083;28;20457;-61
2023/03/25 11:26:37;;;;;;;;;;;;;;;13.31;nan;98080.97;5033576;28;19929;-61
2023/03/25 11:29:07;;;;;;;;;;;;;;;13.61;nan;98084.94;5031078;28;20531;-59
2023/03/25 11:31:34;;;;;;;;;;;;;;;13.70;nan;98077.69;5031730;28;20035;-63
2023/03/25 11:34:03;;;;;;;;;;;;;;;13.79;nan;98063.56;5031609;28;20110;-63
2023/03/25 11:36:30;;;;;;;;;;;;;;;13.58;nan;98060.13;5030323;28;19966;-62
2023/03/25 11:39:00;;;;;;;;;;;;;;;13.65;nan;98055.56;5029320;28;20277;-60
2023/03/25 11:41:30;;;;;;;;;;;;;;;14.03;nan;98041.09;5028695;28;20034;-60
2023/03/25 11:43:56;;;;;;;;;;;;;;;14.24;nan;98036.78;5027661;28;19994;-61
2023/03/25 11:46:22;;;;;;;;;;;;;;;14.34;nan;98028.56;5028319;28;20019;-61
2023/03/25 11:48:49;;;;;;;;;;;;;;;14.24;nan;98027.31;5030062;28;19964;-61
2023/03/25 11:51:19;;;;;;;;;;;;;;;14.34;nan;98020.81;5029218;28;20447;-61
2023/03/25 11:53:46;;;;;;;;;;;;;;;14.43;nan;98020.47;5031179;28;19987;-61
2023/03/25 11:56:15;;;;;;;;;;;;;;;14.72;nan;98010.59;5030529;28;19944;-61
2023/03/25 11:58:41;;;;;;;;;;;;;;;14.44;nan;98010.97;5028929;28;19921;-60
2023/03/25 12:01:18;;;;;;;;;;;;;;;14.49;nan;98014.19;5030890;28;20355;-60
2023/03/25 12:03:44;;;;;;;;;;;;;;;14.52;nan;98001.16;5028816;28;20363;-60
2023/03/25 12:06:10;;;;;;;;;;;;;;;14.61;nan;98000.75;5031561;28;20411;-61
2023/03/25 12:08:46;;;;;;;;;;;;;;;14.54;nan;97989.03;5029056;28;19932;-61
2023/03/25 12:11:27;;;;;;;;;;;;;;;14.57;nan;97987.16;5026386;28;19928;-60
2023/03/25 12:14:11;;;;;;;;;;;;;;;14.62;nan;97987.78;5027850;28;19926;-61
2023/03/25 12:16:46;;;;;;;;;;;;;;;14.54;nan;97976.97;5027635;28;19921;-60
2023/03/25 12:19:33;;;;;;;;;;;;;;;14.60;nan;97981.84;5029544;28;19964;-60
2023/03/25 12:22:13;;;;;;;;;;;;;;;14.63;nan;97981.72;5029045;28;19956;-61
2023/03/25 12:24:55;;;;;;;;;;;;;;;14.73;nan;97981.28;5029886;28;19920;-60
2023/03/25 12:27:39;;;;;;;;;;;;;;;14.76;nan;97978.59;5031763;28;20407;-60
2023/03/25 12:30:08;;;;;;;;;;;;;;;14.98;nan;97980.06;5027343;28;19920;-60
2023/03/25 12:32:52;;;;;;;;;;;;;;;15.23;nan;97978.94;5024796;28;20418;-60
2023/03/25 12:35:21;;;;;;;;;;;;;;;15.09;nan;97972.69;5028041;28;19921;-60
2023/03/25 12:37:52;;;;;;;;;;;;;;;14.79;nan;97966.38;5028996;28;20167;-60
2023/03/25 12:40:19;;;;;;;;;;;;;;;14.86;nan;97978.06;5028252;28;19943;-60
2023/03/25 12:42:47;;;;;;;;;;;;;;;14.84;nan;97964.41;5029021;28;20439;-61
2023/03/25 12:45:24;;;;;;;;;;;;;;;14.77;nan;97957.84;5029846;28;19975;-60
2023/03/25 12:47:49;;;;;;;;;;;;;;;14.87;nan;97966.84;5028912;28;19925;-60
2023/03/25 12:50:33;;;;;;;;;;;;;;;14.91;nan;97970.94;5029719;28;20210;-61
2023/03/25 12:53:03;;;;;;;;;;;;;;;14.89;nan;97956.47;5028670;28;20463;-61
2023/03/25 12:55:49;;;;;;;;;;;;;;;14.79;nan;97953.47;5029491;28;19921;-61
2023/03/25 12:58:23;;;;;;;;;;;;;;;14.69;nan;97951.38;5029038;28;19970;-61
2023/03/25 13:00:59;;;;;;;;;;;;;;;14.53;nan;97952.09;5029959;28;19925;-61
2023/03/25 13:03:33;;;;;;;;;;;;;;;14.48;nan;97946.28;5028711;28;19927;-60
2023/03/25 13:06:03;;;;;;;;;;;;;;;14.49;nan;97953.13;5028643;28;20026;-61
2023/03/25 13:08:52;;;;;;;;;;;;;;;14.53;nan;97958.97;5028684;28;19974;-63
2023/03/25 13:11:21;;;;;;;;;;;;;;;14.77;nan;97946.69;5022172;28;19920;-61
2023/03/25 13:13:50;;;;;;;;;;;;;;;14.89;nan;97946.13;5027676;28;20376;-60
2023/03/25 13:16:21;;;;;;;;;;;;;;;15.06;nan;97948.75;5028768;28;20287;-60
2023/03/25 13:18:49;;;;;;;;;;;;;;;15.16;nan;97934.47;5030224;28;19977;-60